sensor_id;sensor_type;location;lat;lon;timestamp;pressure;altitude;pressure_sealevel;temperature;humidity
73981;BME280;62348;51.412;5.436;2023-02-11T00:01:34;103362.44;;;4.96;90.88
73981;BME280;62348;51.412;5.436;2023-02-11T00:04:01;103362.59;;;4.94;90.79
73981;BME280;62348;51.412;5.436;2023-02-11T00:06:28;103350.19;;;4.93;91.15
73981;BME280;62348;51.412;5.436;2023-02-11T00:08:55;103347.69;;;4.92;91.01
73981;BME280;62348;51.412;5.436;2023-02-11T00:11:22;103347.00;;;4.89;91.21
73981;BME280;62348;51.412;5.436;2023-02-11T00:13:49;103336.28;;;4.89;91.15
73981;BME280;62348;51.412;5.436;2023-02-11T00:16:17;103332.91;;;4.87;91.48
73981;BME280;62348;51.412;5.436;2023-02-11T00:18:43;103341.94;;;4.86;91.23
73981;BME280;62348;51.412;5.436;2023-02-11T00:21:12;103334.91;;;4.85;91.38
73981;BME280;62348;51.412;5.436;2023-02-11T00:23:38;103330.56;;;4.84;91.45
73981;BME280;62348;51.412;5.436;2023-02-11T00:26:14;103321.84;;;4.82;91.49
73981;BME280;62348;51.412;5.436;2023-02-11T00:28:40;103318.47;;;4.80;91.37
73981;BME280;62348;51.412;5.436;2023-02-11T00:31:05;103315.66;;;4.82;91.83
73981;BME280;62348;51.412;5.436;2023-02-11T00:33:30;103306.91;;;4.80;91.76
73981;BME280;62348;51.412;5.436;2023-02-11T00:35:56;103323.16;;;4.78;91.38
73981;BME280;62348;51.412;5.436;2023-02-11T00:38:21;103320.47;;;4.78;91.76
73981;BME280;62348;51.412;5.436;2023-02-11T00:40:47;103323.16;;;4.78;92.04
73981;BME280;62348;51.412;5.436;2023-02-11T00:43:12;103316.09;;;4.77;92.06
73981;BME280;62348;51.412;5.436;2023-02-11T00:45:38;103316.78;;;4.79;92.01
73981;BME280;62348;51.412;5.436;2023-02-11T00:48:03;103301.72;;;4.78;92.04
73981;BME280;62348;51.412;5.436;2023-02-11T00:50:28;103313.28;;;4.79;91.89
73981;BME280;62348;51.412;5.436;2023-02-11T00:52:54;103307.75;;;4.80;92.10
73981;BME280;62348;51.412;5.436;2023-02-11T00:55:19;103308.59;;;4.81;91.84
73981;BME280;62348;51.412;5.436;2023-02-11T00:57:45;103305.91;;;4.81;92.06
73981;BME280;62348;51.412;5.436;2023-02-11T01:00:11;103304.22;;;4.80;91.98
73981;BME280;62348;51.412;5.436;2023-02-11T01:02:37;103308.59;;;4.81;92.30
73981;BME280;62348;51.412;5.436;2023-02-11T01:05:04;103317.47;;;4.81;92.14
73981;BME280;62348;51.412;5.436;2023-02-11T01:07:30;103316.63;;;4.81;92.10
73981;BME280;62348;51.412;5.436;2023-02-11T01:09:55;103330.03;;;4.81;92.27
73981;BME280;62348;51.412;5.436;2023-02-11T01:12:24;103328.03;;;4.83;92.26
73981;BME280;62348;51.412;5.436;2023-02-11T01:14:49;103329.72;;;4.84;92.17
73981;BME280;62348;51.412;5.436;2023-02-11T01:17:15;103315.31;;;4.85;92.13
73981;BME280;62348;51.412;5.436;2023-02-11T01:19:41;103322.66;;;4.83;92.01
73981;BME280;62348;51.412;5.436;2023-02-11T01:22:06;103336.75;;;4.85;92.05
73981;BME280;62348;51.412;5.436;2023-02-11T01:24:32;103320.81;;;4.83;91.97
73981;BME280;62348;51.412;5.436;2023-02-11T01:26:57;103319.00;;;4.84;92.34
73981;BME280;62348;51.412;5.436;2023-02-11T01:29:23;103322.50;;;4.84;92.41
73981;BME280;62348;51.412;5.436;2023-02-11T01:31:48;103321.50;;;4.85;92.29
73981;BME280;62348;51.412;5.436;2023-02-11T01:34:14;103324.16;;;4.85;91.94
73981;BME280;62348;51.412;5.436;2023-02-11T01:36:40;103322.34;;;4.86;92.07
73981;BME280;62348;51.412;5.436;2023-02-11T01:39:06;103338.59;;;4.84;92.34
73981;BME280;62348;51.412;5.436;2023-02-11T01:41:33;103332.22;;;4.85;92.13
73981;BME280;62348;51.412;5.436;2023-02-11T01:47:09;103335.56;;;4.87;91.96
73981;BME280;62348;51.412;5.436;2023-02-11T01:49:38;103326.69;;;4.87;92.46
73981;BME280;62348;51.412;5.436;2023-02-11T01:52:19;103319.69;;;4.86;92.01
73981;BME280;62348;51.412;5.436;2023-02-11T01:54:49;103313.28;;;4.87;92.10
73981;BME280;62348;51.412;5.436;2023-02-11T01:57:36;103310.63;;;4.87;91.99
73981;BME280;62348;51.412;5.436;2023-02-11T02:05:53;103302.41;;;4.88;91.86
73981;BME280;62348;51.412;5.436;2023-02-11T02:08:28;103292.00;;;4.85;92.12
73981;BME280;62348;51.412;5.436;2023-02-11T02:10:56;103288.50;;;4.85;91.98
73981;BME280;62348;51.412;5.436;2023-02-11T02:13:25;103287.81;;;4.83;92.08
73981;BME280;62348;51.412;5.436;2023-02-11T02:15:55;103299.38;;;4.83;92.02
73981;BME280;62348;51.412;5.436;2023-02-11T02:34:28;103293.19;;;4.83;92.23
73981;BME280;62348;51.412;5.436;2023-02-11T02:37:00;103291.53;;;4.82;92.53
73981;BME280;62348;51.412;5.436;2023-02-11T02:39:32;103286.31;;;4.80;92.34
73981;BME280;62348;51.412;5.436;2023-02-11T02:41:58;103284.63;;;4.79;92.40
73981;BME280;62348;51.412;5.436;2023-02-11T02:44:24;103289.81;;;4.81;92.20
73981;BME280;62348;51.412;5.436;2023-02-11T02:46:50;103294.34;;;4.80;92.48
73981;BME280;62348;51.412;5.436;2023-02-11T02:49:16;103300.69;;;4.79;92.38
73981;BME280;62348;51.412;5.436;2023-02-11T02:57:37;103285.97;;;4.83;92.72
73981;BME280;62348;51.412;5.436;2023-02-11T03:06:02;103274.56;;;4.81;92.67
73981;BME280;62348;51.412;5.436;2023-02-11T03:08:35;103279.94;;;4.81;92.83
73981;BME280;62348;51.412;5.436;2023-02-11T03:11:04;103278.94;;;4.82;92.47
73981;BME280;62348;51.412;5.436;2023-02-11T03:13:32;103293.19;;;4.83;92.66
73981;BME280;62348;51.412;5.436;2023-02-11T03:16:02;103283.47;;;4.82;92.76
73981;BME280;62348;51.412;5.436;2023-02-11T03:18:32;103276.25;;;4.82;92.81
73981;BME280;62348;51.412;5.436;2023-02-11T03:21:00;103269.22;;;4.81;92.64
73981;BME280;62348;51.412;5.436;2023-02-11T03:23:34;103267.19;;;4.83;93.05
73981;BME280;62348;51.412;5.436;2023-02-11T03:26:12;103273.44;;;4.84;93.00
73981;BME280;62348;51.412;5.436;2023-02-11T03:31:26;103274.25;;;4.84;93.18
73981;BME280;62348;51.412;5.436;2023-02-11T03:34:16;103273.91;;;4.87;93.05
73981;BME280;62348;51.412;5.436;2023-02-11T03:36:49;103280.28;;;4.86;93.06
73981;BME280;62348;51.412;5.436;2023-02-11T03:39:20;103276.13;;;4.92;92.45
73981;BME280;62348;51.412;5.436;2023-02-11T03:41:47;103272.25;;;4.86;92.96
73981;BME280;62348;51.412;5.436;2023-02-11T03:44:14;103281.13;;;4.87;92.99
73981;BME280;62348;51.412;5.436;2023-02-11T03:46:43;103273.91;;;4.87;93.08
73981;BME280;62348;51.412;5.436;2023-02-11T03:49:13;103276.59;;;4.87;93.09
73981;BME280;62348;51.412;5.436;2023-02-11T03:51:41;103288.03;;;4.89;92.87
73981;BME280;62348;51.412;5.436;2023-02-11T03:54:10;103281.63;;;4.91;93.12
73981;BME280;62348;51.412;5.436;2023-02-11T03:56:51;103285.16;;;4.91;93.50
73981;BME280;62348;51.412;5.436;2023-02-11T03:59:17;103283.34;;;4.92;93.38
73981;BME280;62348;51.412;5.436;2023-02-11T04:01:43;103275.28;;;4.92;93.27
73981;BME280;62348;51.412;5.436;2023-02-11T04:04:08;103271.59;;;4.93;93.10
73981;BME280;62348;51.412;5.436;2023-02-11T04:06:34;103273.44;;;4.92;93.02
73981;BME280;62348;51.412;5.436;2023-02-11T04:08:59;103278.66;;;4.94;93.28
73981;BME280;62348;51.412;5.436;2023-02-11T04:11:25;103277.78;;;4.93;93.43
73981;BME280;62348;51.412;5.436;2023-02-11T04:13:50;103284.84;;;4.94;93.46
73981;BME280;62348;51.412;5.436;2023-02-11T04:16:15;103264.22;;;4.95;93.07
73981;BME280;62348;51.412;5.436;2023-02-11T04:18:41;103260.72;;;4.94;93.37
73981;BME280;62348;51.412;5.436;2023-02-11T04:21:06;103260.53;;;4.96;93.23
73981;BME280;62348;51.412;5.436;2023-02-11T04:23:32;103247.16;;;4.96;93.49
73981;BME280;62348;51.412;5.436;2023-02-11T04:25:57;103251.47;;;4.97;93.54
73981;BME280;62348;51.412;5.436;2023-02-11T04:28:23;103244.31;;;4.97;93.56
73981;BME280;62348;51.412;5.436;2023-02-11T04:30:49;103259.53;;;4.97;93.58
73981;BME280;62348;51.412;5.436;2023-02-11T04:33:15;103253.34;;;4.96;93.65
73981;BME280;62348;51.412;5.436;2023-02-11T04:35:41;103251.69;;;4.95;93.76
73981;BME280;62348;51.412;5.436;2023-02-11T04:38:07;103240.75;;;4.97;93.59
73981;BME280;62348;51.412;5.436;2023-02-11T04:40:32;103239.09;;;4.96;93.47
73981;BME280;62348;51.412;5.436;2023-02-11T04:42:57;103249.81;;;4.96;93.67
73981;BME280;62348;51.412;5.436;2023-02-11T04:45:26;103247.16;;;4.96;93.38
73981;BME280;62348;51.412;5.436;2023-02-11T04:47:51;103247.16;;;4.96;93.68
73981;BME280;62348;51.412;5.436;2023-02-11T04:50:16;103257.88;;;4.96;93.79
73981;BME280;62348;51.412;5.436;2023-02-11T04:52:42;103258.69;;;4.96;93.46
73981;BME280;62348;51.412;5.436;2023-02-11T04:55:07;103256.84;;;4.97;93.66
73981;BME280;62348;51.412;5.436;2023-02-11T04:57:33;103263.06;;;4.97;93.69
73981;BME280;62348;51.412;5.436;2023-02-11T04:59:58;103255.03;;;4.97;93.94
73981;BME280;62348;51.412;5.436;2023-02-11T05:02:23;103257.88;;;4.96;93.75
73981;BME280;62348;51.412;5.436;2023-02-11T05:04:49;103263.06;;;4.97;93.59
73981;BME280;62348;51.412;5.436;2023-02-11T05:07:14;103266.59;;;4.98;93.86
73981;BME280;62348;51.412;5.436;2023-02-11T05:09:40;103268.44;;;4.97;93.97
73981;BME280;62348;51.412;5.436;2023-02-11T05:12:05;103261.22;;;4.98;93.69
73981;BME280;62348;51.412;5.436;2023-02-11T05:14:31;103260.38;;;4.97;93.50
73981;BME280;62348;51.412;5.436;2023-02-11T05:16:57;103268.25;;;4.99;94.19
73981;BME280;62348;51.412;5.436;2023-02-11T05:19:23;103269.94;;;5.00;93.86
73981;BME280;62348;51.412;5.436;2023-02-11T05:21:48;103262.88;;;4.99;94.07
73981;BME280;62348;51.412;5.436;2023-02-11T05:24:13;103254.84;;;4.99;94.36
73981;BME280;62348;51.412;5.436;2023-02-11T05:26:39;103256.53;;;5.00;94.34
73981;BME280;62348;51.412;5.436;2023-02-11T05:29:04;103258.38;;;4.99;94.06
73981;BME280;62348;51.412;5.436;2023-02-11T05:31:29;103256.69;;;4.98;94.14
73981;BME280;62348;51.412;5.436;2023-02-11T05:33:55;103249.31;;;5.00;94.57
73981;BME280;62348;51.412;5.436;2023-02-11T05:36:20;103253.84;;;5.00;94.50
73981;BME280;62348;51.412;5.436;2023-02-11T05:38:46;103248.66;;;4.98;94.26
73981;BME280;62348;51.412;5.436;2023-02-11T05:41:11;103244.97;;;4.99;94.37
73981;BME280;62348;51.412;5.436;2023-02-11T05:43:37;103242.44;;;4.98;94.55
73981;BME280;62348;51.412;5.436;2023-02-11T05:46:03;103240.28;;;5.01;94.35
73981;BME280;62348;51.412;5.436;2023-02-11T05:48:29;103243.97;;;5.00;94.43
73981;BME280;62348;51.412;5.436;2023-02-11T05:50:55;103240.44;;;5.00;94.72
73981;BME280;62348;51.412;5.436;2023-02-11T05:53:21;103247.50;;;5.01;94.43
73981;BME280;62348;51.412;5.436;2023-02-11T05:55:46;103245.66;;;5.01;94.81
73981;BME280;62348;51.412;5.436;2023-02-11T05:58:12;103236.59;;;5.02;94.53
73981;BME280;62348;51.412;5.436;2023-02-11T06:00:37;103241.13;;;5.02;94.88
73981;BME280;62348;51.412;5.436;2023-02-11T06:03:03;103246.31;;;5.03;94.69
73981;BME280;62348;51.412;5.436;2023-02-11T06:05:29;103253.53;;;5.03;94.77
73981;BME280;62348;51.412;5.436;2023-02-11T06:07:54;103257.03;;;5.03;94.77
73981;BME280;62348;51.412;5.436;2023-02-11T06:10:20;103249.84;;;5.04;94.76
73981;BME280;62348;51.412;5.436;2023-02-11T06:12:46;103260.56;;;5.04;94.85
73981;BME280;62348;51.412;5.436;2023-02-11T06:15:11;103259.56;;;5.05;94.97
73981;BME280;62348;51.412;5.436;2023-02-11T06:17:37;103258.56;;;5.06;95.08
73981;BME280;62348;51.412;5.436;2023-02-11T06:20:05;103263.91;;;5.06;95.33
73981;BME280;62348;51.412;5.436;2023-02-11T06:22:31;103249.50;;;5.07;95.06
73981;BME280;62348;51.412;5.436;2023-02-11T06:24:56;103253.84;;;5.08;94.90
73981;BME280;62348;51.412;5.436;2023-02-11T06:27:22;103244.00;;;5.08;95.25
73981;BME280;62348;51.412;5.436;2023-02-11T06:29:47;103248.34;;;5.09;94.88
73981;BME280;62348;51.412;5.436;2023-02-11T06:32:13;103245.81;;;5.08;94.86
73981;BME280;62348;51.412;5.436;2023-02-11T06:34:38;103264.25;;;5.11;95.41
73981;BME280;62348;51.412;5.436;2023-02-11T06:37:04;103264.41;;;5.09;95.42
73981;BME280;62348;51.412;5.436;2023-02-11T06:39:30;103262.56;;;5.10;95.19
73981;BME280;62348;51.412;5.436;2023-02-11T06:41:55;103259.06;;;5.09;95.31
73981;BME280;62348;51.412;5.436;2023-02-11T06:44:21;103257.06;;;5.12;95.06
73981;BME280;62348;51.412;5.436;2023-02-11T06:46:46;103254.53;;;5.10;94.94
73981;BME280;62348;51.412;5.436;2023-02-11T06:49:11;103251.69;;;5.12;95.45
73981;BME280;62348;51.412;5.436;2023-02-11T06:51:37;103266.13;;;5.11;95.15
73981;BME280;62348;51.412;5.436;2023-02-11T06:54:04;103276.66;;;5.12;95.08
73981;BME280;62348;51.412;5.436;2023-02-11T06:56:30;103275.97;;;5.10;95.31
73981;BME280;62348;51.412;5.436;2023-02-11T06:58:55;103274.84;;;5.13;95.42
73981;BME280;62348;51.412;5.436;2023-02-11T07:01:22;103281.84;;;5.14;95.61
73981;BME280;62348;51.412;5.436;2023-02-11T07:03:49;103287.22;;;5.14;95.57
73981;BME280;62348;51.412;5.436;2023-02-11T07:06:18;103285.41;;;5.14;95.97
73981;BME280;62348;51.412;5.436;2023-02-11T07:08:44;103286.06;;;5.16;95.84
73981;BME280;62348;51.412;5.436;2023-02-11T07:11:15;103291.44;;;5.16;96.45
73981;BME280;62348;51.412;5.436;2023-02-11T07:13:41;103292.28;;;5.17;96.31
73981;BME280;62348;51.412;5.436;2023-02-11T07:16:08;103293.94;;;5.18;96.43
73981;BME280;62348;51.412;5.436;2023-02-11T07:18:34;103294.78;;;5.18;96.48
73981;BME280;62348;51.412;5.436;2023-02-11T07:21:03;103302.69;;;5.20;96.57
73981;BME280;62348;51.412;5.436;2023-02-11T07:23:30;103295.47;;;5.20;96.61
73981;BME280;62348;51.412;5.436;2023-02-11T07:25:55;103297.13;;;5.21;96.54
73981;BME280;62348;51.412;5.436;2023-02-11T07:28:20;103298.81;;;5.22;96.93
73981;BME280;62348;51.412;5.436;2023-02-11T07:30:46;103296.97;;;5.23;96.62
73981;BME280;62348;51.412;5.436;2023-02-11T07:33:11;103301.19;;;5.25;97.08
73981;BME280;62348;51.412;5.436;2023-02-11T07:35:36;103294.97;;;5.25;96.78
73981;BME280;62348;51.412;5.436;2023-02-11T07:38:03;103302.00;;;5.26;97.21
73981;BME280;62348;51.412;5.436;2023-02-11T07:40:28;103306.19;;;5.28;97.02
73981;BME280;62348;51.412;5.436;2023-02-11T07:42:56;103304.34;;;5.29;97.15
73981;BME280;62348;51.412;5.436;2023-02-11T07:45:21;103305.88;;;5.32;97.38
73981;BME280;62348;51.412;5.436;2023-02-11T07:47:46;103301.34;;;5.32;97.44
73981;BME280;62348;51.412;5.436;2023-02-11T07:50:12;103307.53;;;5.33;97.43
73981;BME280;62348;51.412;5.436;2023-02-11T07:52:37;103311.91;;;5.34;97.43
73981;BME280;62348;51.412;5.436;2023-02-11T07:55:03;103313.56;;;5.35;97.72
73981;BME280;62348;51.412;5.436;2023-02-11T07:57:28;103312.75;;;5.34;97.33
73981;BME280;62348;51.412;5.436;2023-02-11T07:59:54;103319.63;;;5.37;97.38
73981;BME280;62348;51.412;5.436;2023-02-11T08:02:19;103313.41;;;5.36;97.55
73981;BME280;62348;51.412;5.436;2023-02-11T08:04:45;103312.44;;;5.37;97.61
73981;BME280;62348;51.412;5.436;2023-02-11T08:07:15;103315.78;;;5.39;97.61
73981;BME280;62348;51.412;5.436;2023-02-11T08:09:40;103324.66;;;5.40;97.32
73981;BME280;62348;51.412;5.436;2023-02-11T08:12:06;103323.84;;;5.39;97.73
73981;BME280;62348;51.412;5.436;2023-02-11T08:14:31;103326.34;;;5.41;97.75
73981;BME280;62348;51.412;5.436;2023-02-11T08:16:57;103329.88;;;5.41;97.69
73981;BME280;62348;51.412;5.436;2023-02-11T08:19:22;103330.69;;;5.42;97.63
73981;BME280;62348;51.412;5.436;2023-02-11T08:21:48;103329.72;;;5.43;97.83
73981;BME280;62348;51.412;5.436;2023-02-11T08:24:14;103334.22;;;5.42;97.88
73981;BME280;62348;51.412;5.436;2023-02-11T08:26:40;103338.59;;;5.43;97.91
73981;BME280;62348;51.412;5.436;2023-02-11T08:29:09;103344.78;;;5.44;98.14
73981;BME280;62348;51.412;5.436;2023-02-11T08:31:37;103342.09;;;5.44;97.87
73981;BME280;62348;51.412;5.436;2023-02-11T08:34:03;103341.13;;;5.45;98.07
73981;BME280;62348;51.412;5.436;2023-02-11T08:36:33;103344.63;;;5.45;98.14
73981;BME280;62348;51.412;5.436;2023-02-11T08:39:02;103349.84;;;5.47;98.10
73981;BME280;62348;51.412;5.436;2023-02-11T08:41:30;103353.34;;;5.47;98.02
73981;BME280;62348;51.412;5.436;2023-02-11T08:43:55;103348.66;;;5.50;98.27
73981;BME280;62348;51.412;5.436;2023-02-11T08:46:21;103353.88;;;5.51;98.17
73981;BME280;62348;51.412;5.436;2023-02-11T08:48:47;103348.34;;;5.53;98.06
73981;BME280;62348;51.412;5.436;2023-02-11T08:51:35;103362.28;;;5.56;98.18
73981;BME280;62348;51.412;5.436;2023-02-11T08:54:00;103351.53;;;5.56;97.95
73981;BME280;62348;51.412;5.436;2023-02-11T08:56:26;103356.75;;;5.58;98.01
73981;BME280;62348;51.412;5.436;2023-02-11T08:58:52;103357.56;;;5.58;98.40
73981;BME280;62348;51.412;5.436;2023-02-11T09:03:45;103352.72;;;5.62;98.33
73981;BME280;62348;51.412;5.436;2023-02-11T09:06:11;103353.69;;;5.61;98.18
73981;BME280;62348;51.412;5.436;2023-02-11T09:08:41;103356.22;;;5.62;98.38
73981;BME280;62348;51.412;5.436;2023-02-11T09:11:07;103365.97;;;5.63;98.13
73981;BME280;62348;51.412;5.436;2023-02-11T09:13:33;103361.44;;;5.64;98.17
73981;BME280;62348;51.412;5.436;2023-02-11T09:16:01;103355.72;;;5.67;98.44
73981;BME280;62348;51.412;5.436;2023-02-11T09:18:27;103358.25;;;5.68;98.49
73981;BME280;62348;51.412;5.436;2023-02-11T09:21:03;103359.94;;;5.70;98.57
73981;BME280;62348;51.412;5.436;2023-02-11T09:23:28;103362.47;;;5.71;98.25
73981;BME280;62348;51.412;5.436;2023-02-11T09:25:54;103360.44;;;5.73;98.31
73981;BME280;62348;51.412;5.436;2023-02-11T09:28:19;103371.00;;;5.75;98.14
73981;BME280;62348;51.412;5.436;2023-02-11T09:30:45;103368.16;;;5.76;98.50
73981;BME280;62348;51.412;5.436;2023-02-11T09:33:10;103359.94;;;5.78;98.19
73981;BME280;62348;51.412;5.436;2023-02-11T09:35:35;103380.22;;;5.80;98.18
73981;BME280;62348;51.412;5.436;2023-02-11T09:38:01;103376.53;;;5.81;98.37
73981;BME280;62348;51.412;5.436;2023-02-11T09:40:26;103378.25;;;5.82;98.40
73981;BME280;62348;51.412;5.436;2023-02-11T09:43:02;103385.13;;;5.85;98.28
73981;BME280;62348;51.412;5.436;2023-02-11T09:45:33;103385.78;;;5.87;98.37
73981;BME280;62348;51.412;5.436;2023-02-11T09:48:05;103390.31;;;5.86;98.45
73981;BME280;62348;51.412;5.436;2023-02-11T09:50:38;103396.34;;;5.89;98.43
73981;BME280;62348;51.412;5.436;2023-02-11T09:53:16;103398.69;;;5.92;98.42
73981;BME280;62348;51.412;5.436;2023-02-11T09:55:46;103400.38;;;5.93;98.27
73981;BME280;62348;51.412;5.436;2023-02-11T09:58:21;103397.53;;;5.94;98.32
73981;BME280;62348;51.412;5.436;2023-02-11T10:01:18;103388.31;;;5.97;98.27
73981;BME280;62348;51.412;5.436;2023-02-11T10:15:13;103398.56;;;6.10;97.84
73981;BME280;62348;51.412;5.436;2023-02-11T10:18:13;103403.44;;;6.14;97.72
73981;BME280;62348;51.412;5.436;2023-02-11T10:23:24;103412.81;;;6.18;97.72
73981;BME280;62348;51.412;5.436;2023-02-11T10:25:52;103418.19;;;6.18;98.02
73981;BME280;62348;51.412;5.436;2023-02-11T10:28:29;103425.94;;;6.21;97.75
73981;BME280;62348;51.412;5.436;2023-02-11T10:31:17;103425.78;;;6.23;97.96
73981;BME280;62348;51.412;5.436;2023-02-11T10:34:08;103437.19;;;6.25;97.50
73981;BME280;62348;51.412;5.436;2023-02-11T10:36:37;103427.28;;;6.25;97.53
73981;BME280;62348;51.412;5.436;2023-02-11T10:39:17;103427.09;;;6.27;97.74
73981;BME280;62348;51.412;5.436;2023-02-11T10:42:07;103430.63;;;6.28;97.74
73981;BME280;62348;51.412;5.436;2023-02-11T10:44:34;103425.91;;;6.30;97.52
73981;BME280;62348;51.412;5.436;2023-02-11T10:47:25;103429.13;;;6.33;97.35
73981;BME280;62348;51.412;5.436;2023-02-11T10:49:52;103431.81;;;6.33;97.65
73981;BME280;62348;51.412;5.436;2023-02-11T10:52:21;103435.00;;;6.37;97.45
73981;BME280;62348;51.412;5.436;2023-02-11T10:57:36;103437.50;;;6.38;97.27
73981;BME280;62348;51.412;5.436;2023-02-11T11:03:18;103446.75;;;6.44;97.61
73981;BME280;62348;51.412;5.436;2023-02-11T11:05:56;103439.34;;;6.46;97.45
73981;BME280;62348;51.412;5.436;2023-02-11T11:08:39;103440.19;;;6.47;97.25
73981;BME280;62348;51.412;5.436;2023-02-11T11:11:09;103447.25;;;6.48;97.15
73981;BME280;62348;51.412;5.436;2023-02-11T11:13:39;103451.59;;;6.49;97.42
73981;BME280;62348;51.412;5.436;2023-02-11T11:18:32;103441.34;;;6.52;97.11
73981;BME280;62348;51.412;5.436;2023-02-11T11:21:09;103444.03;;;6.52;97.41
73981;BME280;62348;51.412;5.436;2023-02-11T11:23:37;103446.56;;;6.54;97.01
73981;BME280;62348;51.412;5.436;2023-02-11T11:26:04;103444.72;;;6.54;97.15
73981;BME280;62348;51.412;5.436;2023-02-11T11:28:40;103455.13;;;6.57;97.28
73981;BME280;62348;51.412;5.436;2023-02-11T11:31:18;103444.22;;;6.59;97.18
73981;BME280;62348;51.412;5.436;2023-02-11T11:33:46;103443.19;;;6.60;97.06
73981;BME280;62348;51.412;5.436;2023-02-11T11:36:15;103457.31;;;6.62;97.04
73981;BME280;62348;51.412;5.436;2023-02-11T11:38:51;103450.59;;;6.66;97.00
73981;BME280;62348;51.412;5.436;2023-02-11T11:41:24;103458.31;;;6.69;97.04
73981;BME280;62348;51.412;5.436;2023-02-11T11:46:23;103463.00;;;6.75;96.36
73981;BME280;62348;51.412;5.436;2023-02-11T11:48:50;103460.50;;;6.74;96.83
73981;BME280;62348;51.412;5.436;2023-02-11T11:51:18;103464.00;;;6.74;96.67
73981;BME280;62348;51.412;5.436;2023-02-11T11:56:23;103459.13;;;6.78;96.54
73981;BME280;62348;51.412;5.436;2023-02-11T11:58:50;103450.91;;;6.79;96.35
73981;BME280;62348;51.412;5.436;2023-02-11T12:09:24;103452.06;;;6.85;96.36
73981;BME280;62348;51.412;5.436;2023-02-11T12:12:09;103444.66;;;6.87;96.52
73981;BME280;62348;51.412;5.436;2023-02-11T12:15:15;103450.88;;;6.88;96.33
73981;BME280;62348;51.412;5.436;2023-02-11T12:26:17;103427.16;;;6.91;96.29
73981;BME280;62348;51.412;5.436;2023-02-11T12:31:58;103419.75;;;6.93;96.22
73981;BME280;62348;51.412;5.436;2023-02-11T12:40:32;103428.66;;;7.02;96.23
73981;BME280;62348;51.412;5.436;2023-02-11T12:43:37;103424.75;;;7.04;96.27
73981;BME280;62348;51.412;5.436;2023-02-11T12:49:09;103421.91;;;7.06;95.95
73981;BME280;62348;51.412;5.436;2023-02-11T12:52:03;103415.31;;;7.09;96.08
73981;BME280;62348;51.412;5.436;2023-02-11T12:57:17;103414.13;;;7.11;96.09
73981;BME280;62348;51.412;5.436;2023-02-11T13:02:26;103414.63;;;7.15;95.99
73981;BME280;62348;51.412;5.436;2023-02-11T13:07:45;103411.06;;;7.22;95.83
73981;BME280;62348;51.412;5.436;2023-02-11T13:12:45;103415.56;;;7.30;96.08
73981;BME280;62348;51.412;5.436;2023-02-11T13:15:31;103416.91;;;7.34;95.83
73981;BME280;62348;51.412;5.436;2023-02-11T13:18:03;103412.84;;;7.38;95.59
73981;BME280;62348;51.412;5.436;2023-02-11T13:20:44;103409.59;;;7.43;95.52
73981;BME280;62348;51.412;5.436;2023-02-11T13:26:04;103408.56;;;7.52;95.33
73981;BME280;62348;51.412;5.436;2023-02-11T13:29:03;103402.81;;;7.55;95.20
73981;BME280;62348;51.412;5.436;2023-02-11T13:31:26;103398.09;;;7.57;94.84
73981;BME280;62348;51.412;5.436;2023-02-11T13:33:54;103408.50;;;7.60;95.21
73981;BME280;62348;51.412;5.436;2023-02-11T13:36:24;103410.84;;;7.63;95.05
73981;BME280;62348;51.412;5.436;2023-02-11T13:38:57;103406.28;;;7.64;94.77
73981;BME280;62348;51.412;5.436;2023-02-11T13:41:30;103398.03;;;7.66;94.65
73981;BME280;62348;51.412;5.436;2023-02-11T13:44:20;103394.81;;;7.70;94.92
73981;BME280;62348;51.412;5.436;2023-02-11T13:51:55;103397.97;;;7.74;94.32
73981;BME280;62348;51.412;5.436;2023-02-11T13:54:25;103407.56;;;7.76;94.39
73981;BME280;62348;51.412;5.436;2023-02-11T13:59:51;103397.06;;;7.81;94.10
73981;BME280;62348;51.412;5.436;2023-02-11T14:02:32;103394.84;;;7.85;94.08
73981;BME280;62348;51.412;5.436;2023-02-11T14:05:24;103396.53;;;7.86;94.08
73981;BME280;62348;51.412;5.436;2023-02-11T14:11:00;103401.38;;;7.91;93.53
73981;BME280;62348;51.412;5.436;2023-02-11T14:13:33;103406.41;;;7.94;93.46
73981;BME280;62348;51.412;5.436;2023-02-11T14:16:07;103405.41;;;7.95;93.46
73981;BME280;62348;51.412;5.436;2023-02-11T14:23:52;103415.16;;;7.96;93.50
73981;BME280;62348;51.412;5.436;2023-02-11T14:28:46;103399.81;;;7.96;93.37
73981;BME280;62348;51.412;5.436;2023-02-11T14:31:20;103409.59;;;7.97;93.19
73981;BME280;62348;51.412;5.436;2023-02-11T14:33:57;103404.19;;;7.97;93.30
73981;BME280;62348;51.412;5.436;2023-02-11T14:36:46;103412.94;;;7.99;93.73
73981;BME280;62348;51.412;5.436;2023-02-11T14:39:27;103409.41;;;7.99;93.33
73981;BME280;62348;51.412;5.436;2023-02-11T14:41:58;103409.41;;;7.99;93.25
73981;BME280;62348;51.412;5.436;2023-02-11T14:44:27;103418.69;;;7.96;93.04
73981;BME280;62348;51.412;5.436;2023-02-11T14:46:55;103407.06;;;7.96;93.10
73981;BME280;62348;51.412;5.436;2023-02-11T14:49:37;103408.09;;;7.95;93.52
73981;BME280;62348;51.412;5.436;2023-02-11T14:54:42;103409.94;;;7.94;93.32
73981;BME280;62348;51.412;5.436;2023-02-11T14:57:14;103410.09;;;7.93;93.34
73981;BME280;62348;51.412;5.436;2023-02-11T15:02:20;103412.16;;;7.91;93.42
73981;BME280;62348;51.412;5.436;2023-02-11T15:04:46;103415.72;;;7.91;93.42
73981;BME280;62348;51.412;5.436;2023-02-11T15:07:12;103415.88;;;7.90;93.38
73981;BME280;62348;51.412;5.436;2023-02-11T15:09:43;103414.19;;;7.89;93.69
73981;BME280;62348;51.412;5.436;2023-02-11T15:12:19;103418.75;;;7.88;93.63
73981;BME280;62348;51.412;5.436;2023-02-11T15:14:50;103426.16;;;7.86;93.59
73981;BME280;62348;51.412;5.436;2023-02-11T15:17:21;103428.03;;;7.86;93.70
73981;BME280;62348;51.412;5.436;2023-02-11T15:19:50;103428.03;;;7.86;93.78
73981;BME280;62348;51.412;5.436;2023-02-11T15:22:18;103425.50;;;7.84;93.53
73981;BME280;62348;51.412;5.436;2023-02-11T15:27:51;103423.81;;;7.83;93.91
73981;BME280;62348;51.412;5.436;2023-02-11T15:32:45;103424.19;;;7.80;93.66